Main page
METAR-TAF:

METAR-TAF

Airports :

Wiscasset Airport

Wiscasset, Maine, United States

latitude: 43-57-49N, longitude: 069-42-42W, elevation: 66 ft

Current weather observation

The report was made 1 hour and 4 minutes ago, at 12:53 UTC
Calm wind
Temperature 19°F
Humidity 93%
Pressure 30.47 in. Hg
Visibility: 10 miles
Clear sky

METAR: KIWI 241253Z AUTO 00000KT 10SM CLR M07/M08 A3047 RMK AO2 SLP318 T10671083

Time: 08:57 (13:57 UTC)


TAF: missing

Weather observations and forecasts of more than 4000 airports (METAR and TAF reports).

The available stations are represented by yellow and red dots on the map.

Hover mouse over dot to see the name of the station.

Then click to see weather observations and forecasts.

To change the map : click on the green buttons with a black cross to zoom in, on the green button with a dash to zoom out, or on the green arrows for adjacent maps.


METAR-TAF: